sensor_id;sensor_type;location;lat;lon;timestamp;pressure;altitude;pressure_sealevel;temperature;humidity
39793;BME280;26080;42.264;24.536;2023-03-16T00:00:43;98211.25;;;7.75;100.00
39793;BME280;26080;42.264;24.536;2023-03-16T00:03:09;98231.59;;;7.84;100.00
39793;BME280;26080;42.264;24.536;2023-03-16T00:05:36;98230.84;;;7.82;100.00
39793;BME280;26080;42.264;24.536;2023-03-16T00:08:02;98235.06;;;7.85;100.00
39793;BME280;26080;42.264;24.536;2023-03-16T00:10:28;98229.19;;;7.81;100.00
39793;BME280;26080;42.264;24.536;2023-03-16T00:12:53;98208.28;;;7.65;100.00
39793;BME280;26080;42.264;24.536;2023-03-16T00:15:20;98232.69;;;7.80;100.00
39793;BME280;26080;42.264;24.536;2023-03-16T00:17:45;98232.75;;;7.79;100.00
39793;BME280;26080;42.264;24.536;2023-03-16T00:20:14;98209.28;;;7.63;100.00
39793;BME280;26080;42.264;24.536;2023-03-16T00:22:40;98197.16;;;7.62;100.00
39793;BME280;26080;42.264;24.536;2023-03-16T00:25:07;98225.38;;;7.54;100.00
39793;BME280;26080;42.264;24.536;2023-03-16T00:27:32;98222.34;;;7.46;100.00
39793;BME280;26080;42.264;24.536;2023-03-16T00:29:58;98223.09;;;7.48;100.00
39793;BME280;26080;42.264;24.536;2023-03-16T00:32:29;98215.09;;;7.35;100.00
39793;BME280;26080;42.264;24.536;2023-03-16T00:34:56;98216.94;;;7.33;100.00
39793;BME280;26080;42.264;24.536;2023-03-16T00:37:23;98229.09;;;7.32;100.00
39793;BME280;26080;42.264;24.536;2023-03-16T00:39:49;98228.03;;;7.36;100.00
39793;BME280;26080;42.264;24.536;2023-03-16T00:42:16;98226.41;;;7.34;100.00
39793;BME280;26080;42.264;24.536;2023-03-16T00:44:42;98236.91;;;7.32;100.00
39793;BME280;26080;42.264;24.536;2023-03-16T00:47:09;98229.94;;;7.33;100.00
39793;BME280;26080;42.264;24.536;2023-03-16T00:49:39;98228.19;;;7.33;100.00
39793;BME280;26080;42.264;24.536;2023-03-16T00:52:08;98222.38;;;7.28;100.00
39793;BME280;26080;42.264;24.536;2023-03-16T00:54:34;98212.88;;;7.27;100.00
39793;BME280;26080;42.264;24.536;2023-03-16T00:57:00;98225.66;;;7.32;100.00
39793;BME280;26080;42.264;24.536;2023-03-16T00:59:27;98231.72;;;7.32;100.00
39793;BME280;26080;42.264;24.536;2023-03-16T01:01:54;98228.94;;;7.35;100.00
39793;BME280;26080;42.264;24.536;2023-03-16T01:04:20;98204.53;;;7.21;100.00
39793;BME280;26080;42.264;24.536;2023-03-16T01:06:46;98234.91;;;7.37;100.00
39793;BME280;26080;42.264;24.536;2023-03-16T01:09:12;98239.44;;;7.34;100.00
39793;BME280;26080;42.264;24.536;2023-03-16T01:11:40;98243.06;;;7.31;100.00
39793;BME280;26080;42.264;24.536;2023-03-16T01:14:08;98240.75;;;7.25;100.00
39793;BME280;26080;42.264;24.536;2023-03-16T01:16:33;98242.59;;;7.23;100.00
39793;BME280;26080;42.264;24.536;2023-03-16T01:18:59;98240.91;;;7.22;100.00
39793;BME280;26080;42.264;24.536;2023-03-16T01:21:26;98243.44;;;7.24;100.00
39793;BME280;26080;42.264;24.536;2023-03-16T01:23:52;98251.03;;;7.28;100.00
39793;BME280;26080;42.264;24.536;2023-03-16T01:26:18;98253.56;;;7.30;100.00
39793;BME280;26080;42.264;24.536;2023-03-16T01:28:45;98254.41;;;7.30;100.00
39793;BME280;26080;42.264;24.536;2023-03-16T01:31:12;98252.91;;;7.25;100.00
39793;BME280;26080;42.264;24.536;2023-03-16T01:33:39;98264.19;;;7.25;100.00
39793;BME280;26080;42.264;24.536;2023-03-16T01:36:16;98268.63;;;7.23;100.00
39793;BME280;26080;42.264;24.536;2023-03-16T01:38:42;98263.75;;;7.17;100.00
39793;BME280;26080;42.264;24.536;2023-03-16T01:41:08;98268.31;;;7.12;100.00
39793;BME280;26080;42.264;24.536;2023-03-16T01:43:35;98266.34;;;7.00;100.00
39793;BME280;26080;42.264;24.536;2023-03-16T01:51:57;98238.63;;;6.45;100.00
39793;BME280;26080;42.264;24.536;2023-03-16T01:54:32;98274.16;;;6.64;100.00
39793;BME280;26080;42.264;24.536;2023-03-16T01:57:14;98244.25;;;6.36;100.00
39793;BME280;26080;42.264;24.536;2023-03-16T01:59:46;98252.28;;;6.32;100.00
39793;BME280;26080;42.264;24.536;2023-03-16T02:02:14;98290.06;;;6.39;100.00
39793;BME280;26080;42.264;24.536;2023-03-16T02:05:04;98285.84;;;6.36;100.00
39793;BME280;26080;42.264;24.536;2023-03-16T02:07:36;98292.19;;;6.31;100.00
39793;BME280;26080;42.264;24.536;2023-03-16T02:10:05;98292.19;;;6.31;100.00
39793;BME280;26080;42.264;24.536;2023-03-16T02:12:32;98293.09;;;6.30;100.00
39793;BME280;26080;42.264;24.536;2023-03-16T02:14:57;98288.88;;;6.27;100.00
39793;BME280;26080;42.264;24.536;2023-03-16T02:17:26;98300.03;;;6.29;100.00
39793;BME280;26080;42.264;24.536;2023-03-16T02:22:45;98288.19;;;6.23;100.00
39793;BME280;26080;42.264;24.536;2023-03-16T02:25:13;98307.50;;;6.18;100.00
39793;BME280;26080;42.264;24.536;2023-03-16T02:28:20;98301.50;;;6.16;100.00
39793;BME280;26080;42.264;24.536;2023-03-16T02:30:49;98283.16;;;6.00;100.00
39793;BME280;26080;42.264;24.536;2023-03-16T02:33:16;98309.47;;;6.13;100.00
39793;BME280;26080;42.264;24.536;2023-03-16T02:35:42;98305.53;;;6.04;100.00
39793;BME280;26080;42.264;24.536;2023-03-16T02:38:07;98292.31;;;5.90;100.00
39793;BME280;26080;42.264;24.536;2023-03-16T02:40:34;98320.31;;;6.02;100.00
39793;BME280;26080;42.264;24.536;2023-03-16T02:45:42;98318.00;;;5.96;100.00
39793;BME280;26080;42.264;24.536;2023-03-16T02:48:15;98325.59;;;6.01;100.00
39793;BME280;26080;42.264;24.536;2023-03-16T02:50:44;98331.78;;;5.98;100.00
39793;BME280;26080;42.264;24.536;2023-03-16T02:53:12;98328.63;;;5.91;100.00
39793;BME280;26080;42.264;24.536;2023-03-16T02:55:38;98332.13;;;5.89;100.00
39793;BME280;26080;42.264;24.536;2023-03-16T02:58:03;98333.88;;;5.90;100.00
39793;BME280;26080;42.264;24.536;2023-03-16T03:00:29;98335.63;;;5.89;100.00
39793;BME280;26080;42.264;24.536;2023-03-16T03:02:54;98336.50;;;5.88;100.00
39793;BME280;26080;42.264;24.536;2023-03-16T03:05:20;98324.09;;;5.75;100.00
39793;BME280;26080;42.264;24.536;2023-03-16T03:07:46;98348.66;;;5.88;100.00
39793;BME280;26080;42.264;24.536;2023-03-16T03:10:11;98348.59;;;5.89;100.00
39793;BME280;26080;42.264;24.536;2023-03-16T03:12:37;98356.50;;;5.86;100.00
39793;BME280;26080;42.264;24.536;2023-03-16T03:15:06;98346.31;;;5.82;100.00
39793;BME280;26080;42.264;24.536;2023-03-16T03:17:32;98338.75;;;5.77;100.00
39793;BME280;26080;42.264;24.536;2023-03-16T03:19:58;98346.47;;;5.79;100.00
39793;BME280;26080;42.264;24.536;2023-03-16T03:22:25;98350.22;;;5.72;100.00
39793;BME280;26080;42.264;24.536;2023-03-16T03:24:51;98357.25;;;5.70;100.00
39793;BME280;26080;42.264;24.536;2023-03-16T03:27:18;98362.38;;;5.71;100.00
39793;BME280;26080;42.264;24.536;2023-03-16T03:29:43;98366.78;;;5.69;100.00
39793;BME280;26080;42.264;24.536;2023-03-16T03:32:09;98373.75;;;5.69;100.00
39793;BME280;26080;42.264;24.536;2023-03-16T03:34:35;98379.97;;;5.64;100.00
39793;BME280;26080;42.264;24.536;2023-03-16T03:37:01;98381.13;;;5.57;100.00
39793;BME280;26080;42.264;24.536;2023-03-16T03:39:26;98383.66;;;5.59;100.00
39793;BME280;26080;42.264;24.536;2023-03-16T03:41:52;98364.50;;;5.41;100.00
39793;BME280;26080;42.264;24.536;2023-03-16T03:44:21;98360.28;;;5.39;100.00
39793;BME280;26080;42.264;24.536;2023-03-16T03:46:47;98394.25;;;5.54;100.00
39793;BME280;26080;42.264;24.536;2023-03-16T03:49:13;98360.72;;;5.28;100.00
39793;BME280;26080;42.264;24.536;2023-03-16T03:51:39;98373.28;;;5.39;100.00
39793;BME280;26080;42.264;24.536;2023-03-16T03:54:06;98403.09;;;5.50;100.00
39793;BME280;26080;42.264;24.536;2023-03-16T03:56:32;98408.28;;;5.50;100.00
39793;BME280;26080;42.264;24.536;2023-03-16T03:58:57;98408.66;;;5.41;100.00
39793;BME280;26080;42.264;24.536;2023-03-16T04:01:23;98416.50;;;5.40;100.00
39793;BME280;26080;42.264;24.536;2023-03-16T04:03:48;98417.56;;;5.34;100.00
39793;BME280;26080;42.264;24.536;2023-03-16T04:06:14;98411.66;;;5.30;100.00
39793;BME280;26080;42.264;24.536;2023-03-16T04:08:40;98410.34;;;5.20;100.00
39793;BME280;26080;42.264;24.536;2023-03-16T04:11:05;98417.91;;;5.26;100.00
39793;BME280;26080;42.264;24.536;2023-03-16T04:13:31;98421.59;;;5.21;100.00
39793;BME280;26080;42.264;24.536;2023-03-16T04:16:00;98431.00;;;5.23;100.00
39793;BME280;26080;42.264;24.536;2023-03-16T04:18:30;98430.25;;;5.20;100.00
39793;BME280;26080;42.264;24.536;2023-03-16T04:21:08;98432.97;;;5.17;100.00
39793;BME280;26080;42.264;24.536;2023-03-16T04:23:36;98416.19;;;5.03;100.00
39793;BME280;26080;42.264;24.536;2023-03-16T04:26:02;98417.81;;;5.06;100.00
39793;BME280;26080;42.264;24.536;2023-03-16T04:28:28;98403.69;;;4.91;100.00
39793;BME280;26080;42.264;24.536;2023-03-16T04:30:53;98419.63;;;5.04;100.00
39793;BME280;26080;42.264;24.536;2023-03-16T04:33:20;98425.78;;;5.01;100.00
39793;BME280;26080;42.264;24.536;2023-03-16T04:35:46;98425.19;;;4.95;100.00
39793;BME280;26080;42.264;24.536;2023-03-16T04:38:12;98428.72;;;4.92;100.00
39793;BME280;26080;42.264;24.536;2023-03-16T04:40:37;98409.34;;;4.79;100.00
39793;BME280;26080;42.264;24.536;2023-03-16T04:43:03;98442.47;;;4.96;100.00
39793;BME280;26080;42.264;24.536;2023-03-16T04:45:28;98445.28;;;4.90;100.00
39793;BME280;26080;42.264;24.536;2023-03-16T04:47:54;98431.81;;;4.80;100.00
39793;BME280;26080;42.264;24.536;2023-03-16T04:50:21;98450.53;;;4.88;100.00
39793;BME280;26080;42.264;24.536;2023-03-16T04:52:47;98428.78;;;4.69;100.00
39793;BME280;26080;42.264;24.536;2023-03-16T04:55:12;98462.94;;;4.80;100.00
39793;BME280;26080;42.264;24.536;2023-03-16T04:57:38;98457.75;;;4.80;100.00
39793;BME280;26080;42.264;24.536;2023-03-16T05:00:04;98439.47;;;4.60;100.00
39793;BME280;26080;42.264;24.536;2023-03-16T05:02:56;98433.34;;;4.62;100.00
39793;BME280;26080;42.264;24.536;2023-03-16T05:05:22;98446.25;;;4.64;100.00
39793;BME280;26080;42.264;24.536;2023-03-16T05:07:47;98474.25;;;4.78;100.00
39793;BME280;26080;42.264;24.536;2023-03-16T05:10:15;98471.66;;;4.78;100.00
39793;BME280;26080;42.264;24.536;2023-03-16T05:12:41;98481.97;;;4.79;100.00
39793;BME280;26080;42.264;24.536;2023-03-16T05:15:07;98489.69;;;4.82;100.00
39793;BME280;26080;42.264;24.536;2023-03-16T05:17:33;98491.38;;;4.83;100.00
39793;BME280;26080;42.264;24.536;2023-03-16T05:19:59;98493.84;;;4.86;100.00
39793;BME280;26080;42.264;24.536;2023-03-16T05:22:24;98499.03;;;4.86;100.00
39793;BME280;26080;42.264;24.536;2023-03-16T05:24:50;98505.66;;;4.93;100.00
39793;BME280;26080;42.264;24.536;2023-03-16T05:27:19;98503.88;;;4.95;100.00
39793;BME280;26080;42.264;24.536;2023-03-16T05:29:45;98476.78;;;4.79;100.00
39793;BME280;26080;42.264;24.536;2023-03-16T05:32:13;98506.31;;;5.00;100.00
39793;BME280;26080;42.264;24.536;2023-03-16T05:34:41;98506.19;;;5.03;100.00
39793;BME280;26080;42.264;24.536;2023-03-16T05:37:08;98482.31;;;4.93;100.00
39793;BME280;26080;42.264;24.536;2023-03-16T05:39:33;98516.22;;;5.12;100.00
39793;BME280;26080;42.264;24.536;2023-03-16T05:41:59;98517.78;;;5.16;100.00
39793;BME280;26080;42.264;24.536;2023-03-16T05:44:24;98527.91;;;5.24;100.00
39793;BME280;26080;42.264;24.536;2023-03-16T05:46:50;98527.84;;;5.25;100.00
39793;BME280;26080;42.264;24.536;2023-03-16T05:49:16;98523.50;;;5.26;100.00
39793;BME280;26080;42.264;24.536;2023-03-16T05:51:42;98531.81;;;5.34;100.00
39793;BME280;26080;42.264;24.536;2023-03-16T05:54:07;98540.28;;;5.39;100.00
39793;BME280;26080;42.264;24.536;2023-03-16T05:56:33;98540.09;;;5.44;100.00
39793;BME280;26080;42.264;24.536;2023-03-16T05:58:59;98520.66;;;5.32;100.00
39793;BME280;26080;42.264;24.536;2023-03-16T06:01:25;98545.03;;;5.51;100.00
39793;BME280;26080;42.264;24.536;2023-03-16T06:03:51;98554.31;;;5.57;100.00
39793;BME280;26080;42.264;24.536;2023-03-16T06:06:18;98529.91;;;5.39;100.00
39793;BME280;26080;42.264;24.536;2023-03-16T06:08:44;98553.34;;;5.59;100.00
39793;BME280;26080;42.264;24.536;2023-03-16T06:11:10;98555.78;;;5.64;100.00
39793;BME280;26080;42.264;24.536;2023-03-16T06:13:36;98554.69;;;5.70;100.00
39793;BME280;26080;42.264;24.536;2023-03-16T06:16:02;98568.31;;;5.75;100.00
39793;BME280;26080;42.264;24.536;2023-03-16T06:18:28;98572.50;;;5.79;100.00
39793;BME280;26080;42.264;24.536;2023-03-16T06:20:53;98568.16;;;5.79;100.00
39793;BME280;26080;42.264;24.536;2023-03-16T06:23:19;98581.03;;;5.82;100.00
39793;BME280;26080;42.264;24.536;2023-03-16T06:25:46;98570.88;;;5.76;100.00
39793;BME280;26080;42.264;24.536;2023-03-16T06:28:15;98569.97;;;5.77;100.00
39793;BME280;26080;42.264;24.536;2023-03-16T06:30:40;98587.19;;;5.80;100.00
39793;BME280;26080;42.264;24.536;2023-03-16T06:33:06;98592.13;;;5.86;100.00
39793;BME280;26080;42.264;24.536;2023-03-16T06:35:32;98588.88;;;5.81;100.00
39793;BME280;26080;42.264;24.536;2023-03-16T06:37:58;98597.47;;;5.83;100.00
39793;BME280;26080;42.264;24.536;2023-03-16T06:40:24;98600.84;;;5.85;100.00
39793;BME280;26080;42.264;24.536;2023-03-16T06:42:49;98593.97;;;5.84;100.00
39793;BME280;26080;42.264;24.536;2023-03-16T06:45:15;98601.81;;;5.82;100.00
39793;BME280;26080;42.264;24.536;2023-03-16T06:47:42;98586.69;;;5.70;100.00
39793;BME280;26080;42.264;24.536;2023-03-16T06:50:08;98622.41;;;5.87;100.00
39793;BME280;26080;42.264;24.536;2023-03-16T06:52:34;98574.13;;;5.59;100.00
39793;BME280;26080;42.264;24.536;2023-03-16T06:55:00;98624.22;;;5.85;100.00
39793;BME280;26080;42.264;24.536;2023-03-16T06:57:25;98625.78;;;5.89;100.00
39793;BME280;26080;42.264;24.536;2023-03-16T06:59:51;98595.13;;;5.77;100.00
39793;BME280;26080;42.264;24.536;2023-03-16T07:02:16;98630.88;;;5.93;100.00
39793;BME280;26080;42.264;24.536;2023-03-16T07:04:44;98612.94;;;5.86;100.00
39793;BME280;26080;42.264;24.536;2023-03-16T07:07:10;98639.94;;;6.05;100.00
39793;BME280;26080;42.264;24.536;2023-03-16T07:09:36;98644.16;;;6.08;100.00
39793;BME280;26080;42.264;24.536;2023-03-16T07:12:02;98643.06;;;6.13;100.00
39793;BME280;26080;42.264;24.536;2023-03-16T07:14:28;98604.69;;;5.98;100.00
39793;BME280;26080;42.264;24.536;2023-03-16T07:16:53;98648.47;;;6.31;100.00
39793;BME280;26080;42.264;24.536;2023-03-16T07:19:19;98638.50;;;6.40;100.00
39793;BME280;26080;42.264;24.536;2023-03-16T07:21:45;98637.16;;;6.52;100.00
39793;BME280;26080;42.264;24.536;2023-03-16T07:24:10;98626.69;;;6.53;99.95
39793;BME280;26080;42.264;24.536;2023-03-16T07:26:37;98643.19;;;6.74;99.36
39793;BME280;26080;42.264;24.536;2023-03-16T07:29:03;98654.16;;;6.81;98.51
39793;BME280;26080;42.264;24.536;2023-03-16T07:31:30;98647.97;;;6.83;98.63
39793;BME280;26080;42.264;24.536;2023-03-16T07:33:57;98648.38;;;6.95;96.94
39793;BME280;26080;42.264;24.536;2023-03-16T07:36:22;98650.06;;;6.96;96.81
39793;BME280;26080;42.264;24.536;2023-03-16T07:38:48;98654.81;;;7.06;98.59
39793;BME280;26080;42.264;24.536;2023-03-16T07:41:22;98662.00;;;7.20;96.98
39793;BME280;26080;42.264;24.536;2023-03-16T07:43:49;98639.19;;;7.06;96.16
39793;BME280;26080;42.264;24.536;2023-03-16T07:46:15;98656.75;;;7.22;95.42
39793;BME280;26080;42.264;24.536;2023-03-16T07:48:43;98665.91;;;7.30;96.62
39793;BME280;26080;42.264;24.536;2023-03-16T07:51:10;98653.66;;;7.32;95.97
39793;BME280;26080;42.264;24.536;2023-03-16T07:53:37;98657.19;;;7.31;93.54
39793;BME280;26080;42.264;24.536;2023-03-16T07:56:02;98660.03;;;7.25;93.36
39793;BME280;26080;42.264;24.536;2023-03-16T07:58:28;98668.72;;;7.26;93.76
39793;BME280;26080;42.264;24.536;2023-03-16T08:00:58;98679.47;;;7.18;93.32
39793;BME280;26080;42.264;24.536;2023-03-16T08:03:25;98677.44;;;7.25;92.74
39793;BME280;26080;42.264;24.536;2023-03-16T08:05:51;98679.41;;;7.20;93.28
39793;BME280;26080;42.264;24.536;2023-03-16T08:08:17;98672.44;;;7.20;93.55
39793;BME280;26080;42.264;24.536;2023-03-16T08:10:43;98663.31;;;7.10;93.90
39793;BME280;26080;42.264;24.536;2023-03-16T08:13:08;98656.56;;;7.06;92.85
39793;BME280;26080;42.264;24.536;2023-03-16T08:15:34;98698.28;;;7.25;93.40
39793;BME280;26080;42.264;24.536;2023-03-16T08:18:00;98699.41;;;7.19;92.81
39793;BME280;26080;42.264;24.536;2023-03-16T08:20:29;98693.59;;;7.12;91.88
39793;BME280;26080;42.264;24.536;2023-03-16T08:22:55;98693.66;;;7.11;92.17
39793;BME280;26080;42.264;24.536;2023-03-16T08:25:21;98691.44;;;7.22;93.24
39793;BME280;26080;42.264;24.536;2023-03-16T08:27:46;98701.69;;;7.27;92.91
39793;BME280;26080;42.264;24.536;2023-03-16T08:30:13;98707.28;;;7.18;91.10
39793;BME280;26080;42.264;24.536;2023-03-16T08:32:40;98707.22;;;7.19;92.83
39793;BME280;26080;42.264;24.536;2023-03-16T08:35:07;98707.59;;;7.30;92.01
39793;BME280;26080;42.264;24.536;2023-03-16T08:37:34;98709.81;;;7.19;91.42
39793;BME280;26080;42.264;24.536;2023-03-16T08:40:00;98681.81;;;7.04;91.35
39793;BME280;26080;42.264;24.536;2023-03-16T08:42:25;98706.94;;;7.25;90.93
39793;BME280;26080;42.264;24.536;2023-03-16T08:44:53;98698.28;;;7.25;92.16
39793;BME280;26080;42.264;24.536;2023-03-16T08:47:20;98698.03;;;7.31;90.68
39793;BME280;26080;42.264;24.536;2023-03-16T08:49:47;98702.09;;;7.36;89.59
39793;BME280;26080;42.264;24.536;2023-03-16T08:52:13;98713.03;;;7.45;89.37
39793;BME280;26080;42.264;24.536;2023-03-16T08:54:40;98703.94;;;7.34;88.76
39793;BME280;26080;42.264;24.536;2023-03-16T08:57:06;98709.75;;;7.41;88.52
39793;BME280;26080;42.264;24.536;2023-03-16T08:59:31;98701.78;;;7.44;88.76
39793;BME280;26080;42.264;24.536;2023-03-16T09:01:57;98720.19;;;7.60;87.84
39793;BME280;26080;42.264;24.536;2023-03-16T09:04:23;98689.44;;;7.68;87.95
39793;BME280;26080;42.264;24.536;2023-03-16T09:06:48;98686.31;;;7.60;86.36
39793;BME280;26080;42.264;24.536;2023-03-16T09:09:16;98707.94;;;7.81;85.27
39793;BME280;26080;42.264;24.536;2023-03-16T09:11:42;98705.00;;;7.88;83.75
39793;BME280;26080;42.264;24.536;2023-03-16T09:14:08;98714.25;;;7.95;85.16
39793;BME280;26080;42.264;24.536;2023-03-16T09:16:34;98703.72;;;7.97;85.12
39793;BME280;26080;42.264;24.536;2023-03-16T09:18:59;98679.13;;;8.02;82.92
39793;BME280;26080;42.264;24.536;2023-03-16T09:21:25;98712.59;;;8.12;81.13
39793;BME280;26080;42.264;24.536;2023-03-16T09:23:50;98711.59;;;8.33;82.36
39793;BME280;26080;42.264;24.536;2023-03-16T09:26:16;98708.50;;;8.44;81.01
39793;BME280;26080;42.264;24.536;2023-03-16T09:28:42;98704.47;;;8.55;81.07
39793;BME280;26080;42.264;24.536;2023-03-16T09:31:08;98692.75;;;8.45;79.80
39793;BME280;26080;42.264;24.536;2023-03-16T09:33:39;98712.44;;;8.52;79.16
39793;BME280;26080;42.264;24.536;2023-03-16T09:36:05;98710.16;;;8.64;80.33
39793;BME280;26080;42.264;24.536;2023-03-16T09:38:31;98707.16;;;8.54;77.97
39793;BME280;26080;42.264;24.536;2023-03-16T09:48:49;98708.78;;;9.26;75.81
39793;BME280;26080;42.264;24.536;2023-03-16T09:51:21;98722.75;;;9.42;76.23
39793;BME280;26080;42.264;24.536;2023-03-16T09:53:47;98714.72;;;9.45;76.26
39793;BME280;26080;42.264;24.536;2023-03-16T09:56:43;98717.34;;;9.78;75.46
39793;BME280;26080;42.264;24.536;2023-03-16T09:59:13;98684.59;;;9.71;74.09
39793;BME280;26080;42.264;24.536;2023-03-16T10:05:06;98713.75;;;10.12;71.52
39793;BME280;26080;42.264;24.536;2023-03-16T10:07:36;98722.13;;;10.03;72.47
39793;BME280;26080;42.264;24.536;2023-03-16T10:12:44;98718.66;;;10.18;71.79
39793;BME280;26080;42.264;24.536;2023-03-16T10:15:17;98711.41;;;10.39;72.45
39793;BME280;26080;42.264;24.536;2023-03-16T10:20:17;98706.34;;;10.20;70.79
39793;BME280;26080;42.264;24.536;2023-03-16T10:22:46;98701.94;;;10.05;71.47
39793;BME280;26080;42.264;24.536;2023-03-16T10:25:22;98714.59;;;9.97;73.51
39793;BME280;26080;42.264;24.536;2023-03-16T10:27:50;98706.25;;;9.90;70.16
39793;BME280;26080;42.264;24.536;2023-03-16T10:30:27;98707.94;;;9.91;72.61
39793;BME280;26080;42.264;24.536;2023-03-16T10:32:56;98706.56;;;10.00;72.09
39793;BME280;26080;42.264;24.536;2023-03-16T10:38:23;98710.56;;;10.07;72.56
39793;BME280;26080;42.264;24.536;2023-03-16T10:40:51;98712.06;;;10.11;73.24
39793;BME280;26080;42.264;24.536;2023-03-16T10:43:17;98710.28;;;9.96;71.57
39793;BME280;26080;42.264;24.536;2023-03-16T10:45:42;98705.06;;;10.12;72.55
39793;BME280;26080;42.264;24.536;2023-03-16T10:48:12;98703.41;;;10.26;71.48
39793;BME280;26080;42.264;24.536;2023-03-16T10:50:39;98678.91;;;10.27;71.39
39793;BME280;26080;42.264;24.536;2023-03-16T10:53:15;98708.53;;;10.59;69.63
39793;BME280;26080;42.264;24.536;2023-03-16T10:55:43;98706.91;;;10.73;68.86
39793;BME280;26080;42.264;24.536;2023-03-16T10:58:10;98706.41;;;10.66;67.31
39793;BME280;26080;42.264;24.536;2023-03-16T11:00:46;98701.78;;;10.71;67.89
39793;BME280;26080;42.264;24.536;2023-03-16T11:03:20;98696.34;;;10.74;69.56
39793;BME280;26080;42.264;24.536;2023-03-16T11:05:57;98704.63;;;10.66;67.61
39793;BME280;26080;42.264;24.536;2023-03-16T11:08:26;98662.81;;;10.35;67.25
39793;BME280;26080;42.264;24.536;2023-03-16T11:10:57;98711.81;;;10.63;69.75
39793;BME280;26080;42.264;24.536;2023-03-16T11:13:31;98698.94;;;10.44;69.79
39793;BME280;26080;42.264;24.536;2023-03-16T11:18:44;98697.25;;;10.27;69.52
39793;BME280;26080;42.264;24.536;2023-03-16T11:23:55;98702.53;;;10.10;70.17
39793;BME280;26080;42.264;24.536;2023-03-16T11:26:29;98706.66;;;10.14;69.36
39793;BME280;26080;42.264;24.536;2023-03-16T11:29:18;98695.81;;;10.22;69.16
39793;BME280;26080;42.264;24.536;2023-03-16T11:31:49;98678.84;;;10.29;70.78
39793;BME280;26080;42.264;24.536;2023-03-16T11:34:19;98691.63;;;10.65;68.85
39793;BME280;26080;42.264;24.536;2023-03-16T11:36:56;98696.94;;;10.63;67.88
39793;BME280;26080;42.264;24.536;2023-03-16T11:39:42;98696.50;;;10.87;68.18
39793;BME280;26080;42.264;24.536;2023-03-16T11:45:18;98679.88;;;11.02;66.04
39793;BME280;26080;42.264;24.536;2023-03-16T11:50:24;98701.44;;;10.91;65.77
39793;BME280;26080;42.264;24.536;2023-03-16T12:01:53;98696.25;;;10.76;67.35
39793;BME280;26080;42.264;24.536;2023-03-16T12:07:45;98702.19;;;10.63;67.08
39793;BME280;26080;42.264;24.536;2023-03-16T12:15:51;98707.91;;;10.86;67.34
39793;BME280;26080;42.264;24.536;2023-03-16T12:18:22;98705.84;;;10.91;67.76
39793;BME280;26080;42.264;24.536;2023-03-16T12:20:57;98716.53;;;10.72;67.62
39793;BME280;26080;42.264;24.536;2023-03-16T12:23:31;98691.44;;;10.68;68.51
39793;BME280;26080;42.264;24.536;2023-03-16T12:25:59;98715.00;;;10.68;66.82
39793;BME280;26080;42.264;24.536;2023-03-16T12:28:26;98717.06;;;10.63;68.50
39793;BME280;26080;42.264;24.536;2023-03-16T12:31:18;98725.03;;;10.46;68.91
39793;BME280;26080;42.264;24.536;2023-03-16T12:37:04;98732.03;;;10.45;68.56
39793;BME280;26080;42.264;24.536;2023-03-16T12:44:59;98736.69;;;10.56;68.42
39793;BME280;26080;42.264;24.536;2023-03-16T12:50:20;98726.44;;;10.51;68.49
39793;BME280;26080;42.264;24.536;2023-03-16T12:52:48;98737.06;;;10.64;67.57
39793;BME280;26080;42.264;24.536;2023-03-16T12:58:01;98740.84;;;10.28;68.03
39793;BME280;26080;42.264;24.536;2023-03-16T13:00:39;98737.88;;;10.34;69.96
39793;BME280;26080;42.264;24.536;2023-03-16T13:03:13;98701.19;;;10.19;70.00
39793;BME280;26080;42.264;24.536;2023-03-16T13:05:50;98748.25;;;10.36;70.35
39793;BME280;26080;42.264;24.536;2023-03-16T13:08:18;98747.41;;;10.35;69.99
39793;BME280;26080;42.264;24.536;2023-03-16T13:11:05;98758.38;;;9.93;69.80
39793;BME280;26080;42.264;24.536;2023-03-16T13:13:32;98756.03;;;9.89;71.85
39793;BME280;26080;42.264;24.536;2023-03-16T13:16:28;98760.88;;;9.79;71.78
39793;BME280;26080;42.264;24.536;2023-03-16T13:18:54;98767.22;;;9.75;70.63
39793;BME280;26080;42.264;24.536;2023-03-16T13:21:41;98777.22;;;9.67;72.07
39793;BME280;26080;42.264;24.536;2023-03-16T13:27:00;98774.69;;;9.31;73.38
39793;BME280;26080;42.264;24.536;2023-03-16T13:29:28;98761.41;;;9.18;74.70
39793;BME280;26080;42.264;24.536;2023-03-16T13:32:01;98779.31;;;9.26;73.32
39793;BME280;26080;42.264;24.536;2023-03-16T13:34:32;98797.94;;;9.19;74.73
39793;BME280;26080;42.264;24.536;2023-03-16T13:37:01;98778.69;;;9.03;75.27
39793;BME280;26080;42.264;24.536;2023-03-16T13:39:29;98792.81;;;8.82;74.85
39793;BME280;26080;42.264;24.536;2023-03-16T13:42:03;98796.41;;;8.79;76.04
39793;BME280;26080;42.264;24.536;2023-03-16T13:44:30;98787.59;;;8.63;76.78
39793;BME280;26080;42.264;24.536;2023-03-16T13:46:56;98801.31;;;8.68;76.55
39793;BME280;26080;42.264;24.536;2023-03-16T13:49:22;98801.38;;;8.67;78.29
39793;BME280;26080;42.264;24.536;2023-03-16T13:51:48;98794.38;;;8.48;78.52
39793;BME280;26080;42.264;24.536;2023-03-16T13:54:39;98806.31;;;8.35;78.66
39793;BME280;26080;42.264;24.536;2023-03-16T13:57:08;98827.66;;;8.24;80.42
39793;BME280;26080;42.264;24.536;2023-03-16T13:59:35;98829.84;;;8.15;79.87
39793;BME280;26080;42.264;24.536;2023-03-16T14:02:01;98824.03;;;8.08;80.55
39793;BME280;26080;42.264;24.536;2023-03-16T14:04:29;98829.75;;;7.97;81.10
39793;BME280;26080;42.264;24.536;2023-03-16T14:06:58;98828.44;;;7.87;81.31
39793;BME280;26080;42.264;24.536;2023-03-16T14:09:26;98844.38;;;7.81;81.48
39793;BME280;26080;42.264;24.536;2023-03-16T14:11:54;98814.72;;;7.63;82.23
39793;BME280;26080;42.264;24.536;2023-03-16T14:14:29;98845.53;;;7.74;82.27